sensor_id;sensor_type;location;lat;lon;timestamp;P1;durP1;ratioP1;P2;durP2;ratioP2
67442;SDS011;54311;51.726;5.154;2023-02-18T00:01:28;67.88;;;38.90;;
67442;SDS011;54311;51.726;5.154;2023-02-18T00:03:54;61.03;;;36.88;;
67442;SDS011;54311;51.726;5.154;2023-02-18T00:06:21;72.82;;;38.80;;
67442;SDS011;54311;51.726;5.154;2023-02-18T00:08:54;61.88;;;37.15;;
67442;SDS011;54311;51.726;5.154;2023-02-18T00:11:21;64.40;;;37.63;;
67442;SDS011;54311;51.726;5.154;2023-02-18T00:13:50;56.70;;;36.42;;
67442;SDS011;54311;51.726;5.154;2023-02-18T00:16:19;62.92;;;38.53;;
67442;SDS011;54311;51.726;5.154;2023-02-18T00:18:45;61.88;;;35.85;;
67442;SDS011;54311;51.726;5.154;2023-02-18T00:21:10;66.60;;;37.90;;
67442;SDS011;54311;51.726;5.154;2023-02-18T00:23:36;59.47;;;36.50;;
67442;SDS011;54311;51.726;5.154;2023-02-18T00:28:33;65.70;;;39.08;;
67442;SDS011;54311;51.726;5.154;2023-02-18T00:31:04;67.95;;;37.33;;
67442;SDS011;54311;51.726;5.154;2023-02-18T00:33:31;66.85;;;39.42;;
67442;SDS011;54311;51.726;5.154;2023-02-18T00:36:00;70.95;;;40.38;;
67442;SDS011;54311;51.726;5.154;2023-02-18T00:38:29;62.67;;;38.42;;
67442;SDS011;54311;51.726;5.154;2023-02-18T00:40:54;61.85;;;36.33;;
67442;SDS011;54311;51.726;5.154;2023-02-18T00:43:19;67.03;;;36.20;;
67442;SDS011;54311;51.726;5.154;2023-02-18T00:45:45;71.57;;;43.05;;
67442;SDS011;54311;51.726;5.154;2023-02-18T00:48:10;70.00;;;38.85;;
67442;SDS011;54311;51.726;5.154;2023-02-18T00:50:35;65.22;;;38.25;;
67442;SDS011;54311;51.726;5.154;2023-02-18T00:53:01;66.97;;;39.72;;
67442;SDS011;54311;51.726;5.154;2023-02-18T00:55:26;69.07;;;39.28;;
67442;SDS011;54311;51.726;5.154;2023-02-18T00:57:51;68.35;;;39.25;;
67442;SDS011;54311;51.726;5.154;2023-02-18T01:00:17;69.63;;;39.38;;
67442;SDS011;54311;51.726;5.154;2023-02-18T01:02:42;73.18;;;39.08;;
67442;SDS011;54311;51.726;5.154;2023-02-18T01:05:08;64.25;;;37.15;;
67442;SDS011;54311;51.726;5.154;2023-02-18T01:07:33;64.80;;;38.70;;
67442;SDS011;54311;51.726;5.154;2023-02-18T01:09:58;69.18;;;37.28;;
67442;SDS011;54311;51.726;5.154;2023-02-18T01:12:24;64.78;;;36.53;;
67442;SDS011;54311;51.726;5.154;2023-02-18T01:14:49;69.65;;;40.10;;
67442;SDS011;54311;51.726;5.154;2023-02-18T01:17:15;62.45;;;36.95;;
67442;SDS011;54311;51.726;5.154;2023-02-18T01:19:41;76.47;;;42.55;;
67442;SDS011;54311;51.726;5.154;2023-02-18T01:22:07;69.40;;;39.05;;
67442;SDS011;54311;51.726;5.154;2023-02-18T01:24:32;69.05;;;37.80;;
67442;SDS011;54311;51.726;5.154;2023-02-18T01:26:57;70.85;;;41.65;;
67442;SDS011;54311;51.726;5.154;2023-02-18T01:29:23;66.05;;;38.20;;
67442;SDS011;54311;51.726;5.154;2023-02-18T01:31:48;72.60;;;38.53;;
67442;SDS011;54311;51.726;5.154;2023-02-18T01:34:14;63.88;;;39.60;;
67442;SDS011;54311;51.726;5.154;2023-02-18T01:36:39;72.47;;;38.22;;
67442;SDS011;54311;51.726;5.154;2023-02-18T01:39:05;72.40;;;38.90;;
67442;SDS011;54311;51.726;5.154;2023-02-18T01:41:31;69.95;;;39.65;;
67442;SDS011;54311;51.726;5.154;2023-02-18T01:44:16;72.10;;;38.85;;
67442;SDS011;54311;51.726;5.154;2023-02-18T01:46:43;74.00;;;39.42;;
67442;SDS011;54311;51.726;5.154;2023-02-18T01:49:09;63.70;;;36.25;;
67442;SDS011;54311;51.726;5.154;2023-02-18T01:51:38;78.43;;;40.17;;
67442;SDS011;54311;51.726;5.154;2023-02-18T01:54:21;72.05;;;38.00;;
67442;SDS011;54311;51.726;5.154;2023-02-18T01:57:00;66.43;;;36.40;;
67442;SDS011;54311;51.726;5.154;2023-02-18T01:59:38;65.45;;;37.80;;
67442;SDS011;54311;51.726;5.154;2023-02-18T02:02:05;69.72;;;39.17;;
67442;SDS011;54311;51.726;5.154;2023-02-18T02:04:35;71.95;;;38.60;;
67442;SDS011;54311;51.726;5.154;2023-02-18T02:07:00;61.72;;;33.58;;
67442;SDS011;54311;51.726;5.154;2023-02-18T02:09:27;60.22;;;35.67;;
67442;SDS011;54311;51.726;5.154;2023-02-18T02:36:52;51.97;;;32.28;;
67442;SDS011;54311;51.726;5.154;2023-02-18T02:47:13;55.47;;;32.35;;
67442;SDS011;54311;51.726;5.154;2023-02-18T02:52:21;52.65;;;31.58;;
67442;SDS011;54311;51.726;5.154;2023-02-18T02:54:50;57.30;;;33.57;;
67442;SDS011;54311;51.726;5.154;2023-02-18T02:59:42;48.78;;;29.00;;
67442;SDS011;54311;51.726;5.154;2023-02-18T03:19:03;69.53;;;36.45;;
67442;SDS011;54311;51.726;5.154;2023-02-18T03:21:34;66.88;;;35.92;;
67442;SDS011;54311;51.726;5.154;2023-02-18T03:24:13;60.67;;;34.67;;
67442;SDS011;54311;51.726;5.154;2023-02-18T03:26:43;54.85;;;33.35;;
67442;SDS011;54311;51.726;5.154;2023-02-18T03:29:11;54.80;;;34.08;;
67442;SDS011;54311;51.726;5.154;2023-02-18T03:31:37;47.22;;;29.85;;
67442;SDS011;54311;51.726;5.154;2023-02-18T03:34:05;46.70;;;27.90;;
67442;SDS011;54311;51.726;5.154;2023-02-18T03:36:33;45.92;;;28.42;;
67442;SDS011;54311;51.726;5.154;2023-02-18T03:39:03;43.35;;;27.15;;
67442;SDS011;54311;51.726;5.154;2023-02-18T03:41:31;46.38;;;27.98;;
67442;SDS011;54311;51.726;5.154;2023-02-18T03:43:58;41.65;;;25.52;;
67442;SDS011;54311;51.726;5.154;2023-02-18T03:46:25;44.88;;;28.10;;
67442;SDS011;54311;51.726;5.154;2023-02-18T03:48:51;39.33;;;26.05;;
67442;SDS011;54311;51.726;5.154;2023-02-18T03:51:17;41.92;;;26.65;;
67442;SDS011;54311;51.726;5.154;2023-02-18T03:53:43;42.70;;;25.45;;
67442;SDS011;54311;51.726;5.154;2023-02-18T03:56:09;36.53;;;23.63;;
67442;SDS011;54311;51.726;5.154;2023-02-18T03:58:34;34.95;;;22.90;;
67442;SDS011;54311;51.726;5.154;2023-02-18T04:00:59;32.22;;;24.30;;
67442;SDS011;54311;51.726;5.154;2023-02-18T04:03:25;31.13;;;23.00;;
67442;SDS011;54311;51.726;5.154;2023-02-18T04:05:50;31.23;;;21.25;;
67442;SDS011;54311;51.726;5.154;2023-02-18T04:08:15;33.50;;;22.83;;
67442;SDS011;54311;51.726;5.154;2023-02-18T04:10:40;31.17;;;21.35;;
67442;SDS011;54311;51.726;5.154;2023-02-18T04:13:06;30.83;;;21.30;;
67442;SDS011;54311;51.726;5.154;2023-02-18T04:15:31;29.45;;;20.45;;
67442;SDS011;54311;51.726;5.154;2023-02-18T04:17:58;25.70;;;19.48;;
67442;SDS011;54311;51.726;5.154;2023-02-18T04:20:23;28.33;;;20.75;;
67442;SDS011;54311;51.726;5.154;2023-02-18T04:22:49;28.42;;;21.08;;
67442;SDS011;54311;51.726;5.154;2023-02-18T04:25:14;27.67;;;20.50;;
67442;SDS011;54311;51.726;5.154;2023-02-18T04:27:39;26.77;;;19.50;;
67442;SDS011;54311;51.726;5.154;2023-02-18T04:30:05;21.25;;;16.65;;
67442;SDS011;54311;51.726;5.154;2023-02-18T04:32:31;22.02;;;16.48;;
67442;SDS011;54311;51.726;5.154;2023-02-18T04:34:56;18.58;;;14.35;;
67442;SDS011;54311;51.726;5.154;2023-02-18T04:37:21;25.48;;;17.27;;
67442;SDS011;54311;51.726;5.154;2023-02-18T04:39:47;22.42;;;18.10;;
67442;SDS011;54311;51.726;5.154;2023-02-18T04:42:12;17.40;;;14.40;;
67442;SDS011;54311;51.726;5.154;2023-02-18T04:44:38;20.15;;;15.40;;
67442;SDS011;54311;51.726;5.154;2023-02-18T04:47:04;18.88;;;15.93;;
67442;SDS011;54311;51.726;5.154;2023-02-18T04:49:30;18.75;;;14.85;;
67442;SDS011;54311;51.726;5.154;2023-02-18T04:51:55;18.48;;;14.93;;
67442;SDS011;54311;51.726;5.154;2023-02-18T04:54:21;17.48;;;14.25;;
67442;SDS011;54311;51.726;5.154;2023-02-18T04:56:46;20.15;;;15.82;;
67442;SDS011;54311;51.726;5.154;2023-02-18T04:59:11;17.98;;;14.95;;
67442;SDS011;54311;51.726;5.154;2023-02-18T05:01:37;21.55;;;15.98;;
67442;SDS011;54311;51.726;5.154;2023-02-18T05:04:02;20.13;;;14.70;;
67442;SDS011;54311;51.726;5.154;2023-02-18T05:06:28;18.15;;;14.45;;
67442;SDS011;54311;51.726;5.154;2023-02-18T05:08:53;15.98;;;14.27;;
67442;SDS011;54311;51.726;5.154;2023-02-18T05:11:18;17.17;;;14.60;;
67442;SDS011;54311;51.726;5.154;2023-02-18T05:13:44;16.08;;;13.93;;
67442;SDS011;54311;51.726;5.154;2023-02-18T05:16:09;16.55;;;13.63;;
67442;SDS011;54311;51.726;5.154;2023-02-18T05:18:34;13.18;;;11.88;;
67442;SDS011;54311;51.726;5.154;2023-02-18T05:21:00;13.38;;;12.00;;
67442;SDS011;54311;51.726;5.154;2023-02-18T05:23:25;14.05;;;12.18;;
67442;SDS011;54311;51.726;5.154;2023-02-18T05:25:51;11.13;;;10.10;;
67442;SDS011;54311;51.726;5.154;2023-02-18T05:28:16;11.90;;;10.70;;
67442;SDS011;54311;51.726;5.154;2023-02-18T05:30:42;11.57;;;10.38;;
67442;SDS011;54311;51.726;5.154;2023-02-18T05:33:07;11.15;;;9.80;;
67442;SDS011;54311;51.726;5.154;2023-02-18T05:35:33;12.90;;;10.93;;
67442;SDS011;54311;51.726;5.154;2023-02-18T05:37:58;9.45;;;8.65;;
67442;SDS011;54311;51.726;5.154;2023-02-18T05:40:23;11.35;;;9.65;;
67442;SDS011;54311;51.726;5.154;2023-02-18T05:42:48;11.18;;;10.13;;
67442;SDS011;54311;51.726;5.154;2023-02-18T05:45:14;10.38;;;8.85;;
67442;SDS011;54311;51.726;5.154;2023-02-18T05:47:39;13.02;;;10.02;;
67442;SDS011;54311;51.726;5.154;2023-02-18T05:50:05;10.98;;;9.43;;
67442;SDS011;54311;51.726;5.154;2023-02-18T05:52:31;12.50;;;10.82;;
67442;SDS011;54311;51.726;5.154;2023-02-18T05:54:56;14.15;;;11.95;;
67442;SDS011;54311;51.726;5.154;2023-02-18T05:57:21;14.60;;;10.68;;
67442;SDS011;54311;51.726;5.154;2023-02-18T05:59:47;12.75;;;11.38;;
67442;SDS011;54311;51.726;5.154;2023-02-18T06:02:12;13.35;;;11.23;;
67442;SDS011;54311;51.726;5.154;2023-02-18T06:04:37;15.35;;;13.70;;
67442;SDS011;54311;51.726;5.154;2023-02-18T06:07:04;16.02;;;13.50;;
67442;SDS011;54311;51.726;5.154;2023-02-18T06:09:30;16.50;;;14.32;;
67442;SDS011;54311;51.726;5.154;2023-02-18T06:11:55;19.27;;;15.77;;
67442;SDS011;54311;51.726;5.154;2023-02-18T06:14:20;20.77;;;16.65;;
67442;SDS011;54311;51.726;5.154;2023-02-18T06:16:46;20.67;;;15.75;;
67442;SDS011;54311;51.726;5.154;2023-02-18T06:19:11;21.52;;;16.00;;
67442;SDS011;54311;51.726;5.154;2023-02-18T06:21:36;18.20;;;14.68;;
67442;SDS011;54311;51.726;5.154;2023-02-18T06:24:02;19.88;;;16.13;;
67442;SDS011;54311;51.726;5.154;2023-02-18T06:26:27;18.80;;;12.93;;
67442;SDS011;54311;51.726;5.154;2023-02-18T06:28:52;16.98;;;14.20;;
67442;SDS011;54311;51.726;5.154;2023-02-18T06:31:18;15.63;;;13.30;;
67442;SDS011;54311;51.726;5.154;2023-02-18T06:33:43;16.95;;;13.05;;
67442;SDS011;54311;51.726;5.154;2023-02-18T06:36:10;16.55;;;13.15;;
67442;SDS011;54311;51.726;5.154;2023-02-18T06:38:36;15.82;;;14.13;;
67442;SDS011;54311;51.726;5.154;2023-02-18T06:41:03;17.02;;;14.45;;
67442;SDS011;54311;51.726;5.154;2023-02-18T06:43:29;18.35;;;13.52;;
67442;SDS011;54311;51.726;5.154;2023-02-18T06:45:55;15.52;;;13.65;;
67442;SDS011;54311;51.726;5.154;2023-02-18T06:48:20;15.73;;;12.18;;
67442;SDS011;54311;51.726;5.154;2023-02-18T06:50:46;15.48;;;12.00;;
67442;SDS011;54311;51.726;5.154;2023-02-18T06:53:12;15.55;;;13.95;;
67442;SDS011;54311;51.726;5.154;2023-02-18T06:55:37;15.43;;;13.68;;
67442;SDS011;54311;51.726;5.154;2023-02-18T06:58:03;17.33;;;13.63;;
67442;SDS011;54311;51.726;5.154;2023-02-18T07:00:28;17.33;;;13.27;;
67442;SDS011;54311;51.726;5.154;2023-02-18T07:02:54;15.73;;;13.80;;
67442;SDS011;54311;51.726;5.154;2023-02-18T07:05:19;15.98;;;13.48;;
67442;SDS011;54311;51.726;5.154;2023-02-18T07:07:44;13.65;;;11.80;;
67442;SDS011;54311;51.726;5.154;2023-02-18T07:10:11;14.32;;;12.57;;
67442;SDS011;54311;51.726;5.154;2023-02-18T07:12:36;17.45;;;12.57;;
67442;SDS011;54311;51.726;5.154;2023-02-18T07:15:02;16.27;;;13.48;;
67442;SDS011;54311;51.726;5.154;2023-02-18T07:17:29;18.08;;;14.13;;
67442;SDS011;54311;51.726;5.154;2023-02-18T07:19:54;21.13;;;15.55;;
67442;SDS011;54311;51.726;5.154;2023-02-18T07:22:20;20.25;;;17.85;;
67442;SDS011;54311;51.726;5.154;2023-02-18T07:24:45;24.80;;;18.38;;
67442;SDS011;54311;51.726;5.154;2023-02-18T07:27:15;31.20;;;19.25;;
67442;SDS011;54311;51.726;5.154;2023-02-18T07:29:40;32.55;;;19.33;;
67442;SDS011;54311;51.726;5.154;2023-02-18T07:32:06;38.03;;;19.65;;
67442;SDS011;54311;51.726;5.154;2023-02-18T07:34:31;33.53;;;20.40;;
67442;SDS011;54311;51.726;5.154;2023-02-18T07:36:56;26.77;;;17.65;;
67442;SDS011;54311;51.726;5.154;2023-02-18T07:39:22;33.65;;;18.75;;
67442;SDS011;54311;51.726;5.154;2023-02-18T07:41:47;31.45;;;17.95;;
67442;SDS011;54311;51.726;5.154;2023-02-18T07:44:13;24.10;;;17.38;;
67442;SDS011;54311;51.726;5.154;2023-02-18T07:46:39;40.13;;;17.92;;
67442;SDS011;54311;51.726;5.154;2023-02-18T07:49:05;31.17;;;18.75;;
67442;SDS011;54311;51.726;5.154;2023-02-18T07:51:30;31.08;;;17.33;;
67442;SDS011;54311;51.726;5.154;2023-02-18T07:53:56;24.10;;;15.18;;
67442;SDS011;54311;51.726;5.154;2023-02-18T07:56:21;34.05;;;16.92;;
67442;SDS011;54311;51.726;5.154;2023-02-18T07:58:46;26.27;;;15.65;;
67442;SDS011;54311;51.726;5.154;2023-02-18T08:01:13;23.40;;;14.02;;
67442;SDS011;54311;51.726;5.154;2023-02-18T08:03:39;32.35;;;14.80;;
67442;SDS011;54311;51.726;5.154;2023-02-18T08:06:05;26.10;;;13.95;;
67442;SDS011;54311;51.726;5.154;2023-02-18T08:08:31;23.50;;;12.82;;
67442;SDS011;54311;51.726;5.154;2023-02-18T08:10:57;35.90;;;13.65;;
67442;SDS011;54311;51.726;5.154;2023-02-18T08:13:26;26.52;;;11.98;;
67442;SDS011;54311;51.726;5.154;2023-02-18T08:15:53;19.80;;;10.75;;
67442;SDS011;54311;51.726;5.154;2023-02-18T08:18:20;24.10;;;10.93;;
67442;SDS011;54311;51.726;5.154;2023-02-18T08:20:46;27.02;;;10.25;;
67442;SDS011;54311;51.726;5.154;2023-02-18T08:23:13;32.03;;;10.80;;
67442;SDS011;54311;51.726;5.154;2023-02-18T08:25:38;23.27;;;9.15;;
67442;SDS011;54311;51.726;5.154;2023-02-18T08:28:04;31.67;;;9.82;;
67442;SDS011;54311;51.726;5.154;2023-02-18T08:30:29;27.20;;;8.55;;
67442;SDS011;54311;51.726;5.154;2023-02-18T08:32:55;18.75;;;8.73;;
67442;SDS011;54311;51.726;5.154;2023-02-18T08:35:20;27.85;;;8.45;;
67442;SDS011;54311;51.726;5.154;2023-02-18T08:37:46;22.13;;;7.78;;
67442;SDS011;54311;51.726;5.154;2023-02-18T08:40:11;21.85;;;7.60;;
67442;SDS011;54311;51.726;5.154;2023-02-18T08:42:38;22.90;;;7.57;;
67442;SDS011;54311;51.726;5.154;2023-02-18T08:45:03;20.45;;;7.72;;
67442;SDS011;54311;51.726;5.154;2023-02-18T08:47:29;18.13;;;6.85;;
67442;SDS011;54311;51.726;5.154;2023-02-18T08:49:55;23.35;;;7.30;;
67442;SDS011;54311;51.726;5.154;2023-02-18T08:52:20;23.50;;;7.72;;
67442;SDS011;54311;51.726;5.154;2023-02-18T08:54:45;20.77;;;6.75;;
67442;SDS011;54311;51.726;5.154;2023-02-18T08:57:11;16.98;;;6.07;;
67442;SDS011;54311;51.726;5.154;2023-02-18T08:59:37;26.10;;;6.47;;
67442;SDS011;54311;51.726;5.154;2023-02-18T09:02:02;19.20;;;6.85;;
67442;SDS011;54311;51.726;5.154;2023-02-18T09:04:28;16.15;;;6.40;;
67442;SDS011;54311;51.726;5.154;2023-02-18T09:06:54;20.23;;;6.78;;
67442;SDS011;54311;51.726;5.154;2023-02-18T09:09:19;20.65;;;6.85;;
67442;SDS011;54311;51.726;5.154;2023-02-18T09:11:47;18.42;;;6.13;;
67442;SDS011;54311;51.726;5.154;2023-02-18T09:14:12;17.38;;;6.35;;
67442;SDS011;54311;51.726;5.154;2023-02-18T09:16:38;17.95;;;6.75;;
67442;SDS011;54311;51.726;5.154;2023-02-18T09:19:05;20.10;;;6.72;;
67442;SDS011;54311;51.726;5.154;2023-02-18T09:21:30;22.38;;;7.55;;
67442;SDS011;54311;51.726;5.154;2023-02-18T09:23:56;15.45;;;6.20;;
67442;SDS011;54311;51.726;5.154;2023-02-18T09:26:21;19.33;;;6.40;;
67442;SDS011;54311;51.726;5.154;2023-02-18T09:28:48;17.55;;;5.90;;
67442;SDS011;54311;51.726;5.154;2023-02-18T09:31:16;19.17;;;7.35;;
67442;SDS011;54311;51.726;5.154;2023-02-18T09:33:44;19.77;;;6.20;;
67442;SDS011;54311;51.726;5.154;2023-02-18T09:36:11;18.92;;;6.40;;
67442;SDS011;54311;51.726;5.154;2023-02-18T09:38:36;16.98;;;6.63;;
67442;SDS011;54311;51.726;5.154;2023-02-18T09:41:03;22.15;;;7.13;;
67442;SDS011;54311;51.726;5.154;2023-02-18T09:43:41;19.45;;;6.72;;
67442;SDS011;54311;51.726;5.154;2023-02-18T09:46:20;12.90;;;5.70;;
67442;SDS011;54311;51.726;5.154;2023-02-18T09:48:52;18.05;;;6.93;;
67442;SDS011;54311;51.726;5.154;2023-02-18T09:51:18;16.60;;;6.07;;
67442;SDS011;54311;51.726;5.154;2023-02-18T09:53:44;13.13;;;5.25;;
67442;SDS011;54311;51.726;5.154;2023-02-18T09:56:14;12.55;;;6.35;;
67442;SDS011;54311;51.726;5.154;2023-02-18T09:58:44;11.00;;;6.20;;
67442;SDS011;54311;51.726;5.154;2023-02-18T10:01:17;20.10;;;5.82;;
67442;SDS011;54311;51.726;5.154;2023-02-18T10:03:49;13.48;;;5.32;;
67442;SDS011;54311;51.726;5.154;2023-02-18T10:06:16;16.55;;;5.95;;
67442;SDS011;54311;51.726;5.154;2023-02-18T10:08:45;13.82;;;5.97;;
67442;SDS011;54311;51.726;5.154;2023-02-18T10:11:12;11.85;;;5.43;;
67442;SDS011;54311;51.726;5.154;2023-02-18T10:13:42;12.27;;;5.30;;
67442;SDS011;54311;51.726;5.154;2023-02-18T10:16:09;18.73;;;6.22;;
67442;SDS011;54311;51.726;5.154;2023-02-18T10:18:41;12.50;;;6.13;;
67442;SDS011;54311;51.726;5.154;2023-02-18T10:23:37;13.23;;;5.90;;
67442;SDS011;54311;51.726;5.154;2023-02-18T10:26:05;12.77;;;6.20;;
67442;SDS011;54311;51.726;5.154;2023-02-18T10:28:31;12.80;;;6.30;;
67442;SDS011;54311;51.726;5.154;2023-02-18T10:31:01;16.70;;;6.47;;
67442;SDS011;54311;51.726;5.154;2023-02-18T10:47:38;11.93;;;5.87;;
67442;SDS011;54311;51.726;5.154;2023-02-18T10:50:13;9.80;;;4.88;;
67442;SDS011;54311;51.726;5.154;2023-02-18T10:52:46;10.40;;;5.70;;
67442;SDS011;54311;51.726;5.154;2023-02-18T10:55:14;14.43;;;6.00;;
67442;SDS011;54311;51.726;5.154;2023-02-18T10:57:52;11.88;;;4.68;;
67442;SDS011;54311;51.726;5.154;2023-02-18T11:00:19;6.93;;;5.15;;
67442;SDS011;54311;51.726;5.154;2023-02-18T11:02:59;12.20;;;4.72;;
67442;SDS011;54311;51.726;5.154;2023-02-18T11:05:27;12.50;;;4.85;;
67442;SDS011;54311;51.726;5.154;2023-02-18T11:07:53;14.13;;;5.10;;
67442;SDS011;54311;51.726;5.154;2023-02-18T11:10:22;17.38;;;5.22;;
67442;SDS011;54311;51.726;5.154;2023-02-18T11:12:50;15.60;;;5.35;;
67442;SDS011;54311;51.726;5.154;2023-02-18T11:15:21;16.20;;;5.45;;
67442;SDS011;54311;51.726;5.154;2023-02-18T11:17:49;20.52;;;5.60;;
67442;SDS011;54311;51.726;5.154;2023-02-18T11:22:51;14.77;;;5.45;;
67442;SDS011;54311;51.726;5.154;2023-02-18T11:25:23;7.25;;;4.72;;
67442;SDS011;54311;51.726;5.154;2023-02-18T11:27:51;16.08;;;5.72;;
67442;SDS011;54311;51.726;5.154;2023-02-18T11:32:53;13.30;;;6.25;;
67442;SDS011;54311;51.726;5.154;2023-02-18T11:35:21;10.73;;;5.28;;
67442;SDS011;54311;51.726;5.154;2023-02-18T11:37:49;14.60;;;4.55;;
67442;SDS011;54311;51.726;5.154;2023-02-18T11:40:52;8.77;;;5.40;;
67442;SDS011;54311;51.726;5.154;2023-02-18T11:43:11;14.63;;;4.85;;
67442;SDS011;54311;51.726;5.154;2023-02-18T11:45:40;5.47;;;4.53;;
67442;SDS011;54311;51.726;5.154;2023-02-18T11:48:19;13.25;;;4.95;;
67442;SDS011;54311;51.726;5.154;2023-02-18T11:50:51;22.95;;;5.65;;
67442;SDS011;54311;51.726;5.154;2023-02-18T11:56:01;17.38;;;5.25;;
67442;SDS011;54311;51.726;5.154;2023-02-18T11:58:31;15.07;;;5.28;;
67442;SDS011;54311;51.726;5.154;2023-02-18T12:01:03;10.40;;;5.07;;
67442;SDS011;54311;51.726;5.154;2023-02-18T12:03:39;10.68;;;4.90;;
67442;SDS011;54311;51.726;5.154;2023-02-18T12:06:15;19.15;;;6.05;;
67442;SDS011;54311;51.726;5.154;2023-02-18T12:08:47;11.85;;;4.70;;
67442;SDS011;54311;51.726;5.154;2023-02-18T12:11:22;21.95;;;6.03;;
67442;SDS011;54311;51.726;5.154;2023-02-18T12:13:53;12.07;;;5.10;;
67442;SDS011;54311;51.726;5.154;2023-02-18T12:16:30;10.50;;;4.63;;
67442;SDS011;54311;51.726;5.154;2023-02-18T12:24:34;16.60;;;4.80;;
67442;SDS011;54311;51.726;5.154;2023-02-18T12:27:25;26.65;;;7.07;;
67442;SDS011;54311;51.726;5.154;2023-02-18T12:35:28;13.45;;;5.13;;
67442;SDS011;54311;51.726;5.154;2023-02-18T12:49:33;18.65;;;5.68;;
67442;SDS011;54311;51.726;5.154;2023-02-18T12:54:58;14.38;;;5.75;;
67442;SDS011;54311;51.726;5.154;2023-02-18T13:00:39;13.65;;;5.68;;
67442;SDS011;54311;51.726;5.154;2023-02-18T13:14:28;13.98;;;5.32;;
67442;SDS011;54311;51.726;5.154;2023-02-18T13:16:56;15.57;;;5.68;;
67442;SDS011;54311;51.726;5.154;2023-02-18T13:19:23;12.27;;;5.15;;
67442;SDS011;54311;51.726;5.154;2023-02-18T13:21:55;8.70;;;5.10;;
67442;SDS011;54311;51.726;5.154;2023-02-18T13:26:57;13.05;;;4.70;;
67442;SDS011;54311;51.726;5.154;2023-02-18T13:29:34;14.77;;;5.50;;
67442;SDS011;54311;51.726;5.154;2023-02-18T13:32:08;14.70;;;5.53;;
67442;SDS011;54311;51.726;5.154;2023-02-18T13:40:18;14.65;;;4.43;;
67442;SDS011;54311;51.726;5.154;2023-02-18T13:42:49;10.32;;;4.45;;
67442;SDS011;54311;51.726;5.154;2023-02-18T13:45:29;13.68;;;5.15;;
67442;SDS011;54311;51.726;5.154;2023-02-18T13:47:58;11.60;;;5.30;;
67442;SDS011;54311;51.726;5.154;2023-02-18T13:50:25;10.05;;;4.43;;
67442;SDS011;54311;51.726;5.154;2023-02-18T13:55:34;17.77;;;5.25;;
67442;SDS011;54311;51.726;5.154;2023-02-18T13:58:15;16.63;;;5.20;;
67442;SDS011;54311;51.726;5.154;2023-02-18T14:00:46;15.65;;;5.40;;
67442;SDS011;54311;51.726;5.154;2023-02-18T14:06:51;10.55;;;5.53;;
67442;SDS011;54311;51.726;5.154;2023-02-18T14:09:41;17.55;;;5.25;;
67442;SDS011;54311;51.726;5.154;2023-02-18T14:11:57;15.93;;;5.88;;
67442;SDS011;54311;51.726;5.154;2023-02-18T14:14:50;13.73;;;6.05;;
67442;SDS011;54311;51.726;5.154;2023-02-18T14:19:54;15.30;;;5.72;;
67442;SDS011;54311;51.726;5.154;2023-02-18T14:27:29;14.00;;;5.68;;
67442;SDS011;54311;51.726;5.154;2023-02-18T14:29:54;15.10;;;5.63;;
67442;SDS011;54311;51.726;5.154;2023-02-18T14:32:28;15.85;;;5.75;;
67442;SDS011;54311;51.726;5.154;2023-02-18T14:38:01;12.40;;;5.63;;
67442;SDS011;54311;51.726;5.154;2023-02-18T14:51:15;10.75;;;5.25;;
67442;SDS011;54311;51.726;5.154;2023-02-18T14:53:44;16.52;;;5.38;;
67442;SDS011;54311;51.726;5.154;2023-02-18T14:56:11;13.98;;;5.60;;
67442;SDS011;54311;51.726;5.154;2023-02-18T14:58:40;9.82;;;5.65;;
67442;SDS011;54311;51.726;5.154;2023-02-18T15:01:19;16.70;;;5.63;;
67442;SDS011;54311;51.726;5.154;2023-02-18T15:03:49;8.73;;;4.72;;
67442;SDS011;54311;51.726;5.154;2023-02-18T15:06:23;15.50;;;6.15;;
67442;SDS011;54311;51.726;5.154;2023-02-18T15:08:57;14.20;;;4.82;;
67442;SDS011;54311;51.726;5.154;2023-02-18T15:11:24;11.82;;;4.75;;
67442;SDS011;54311;51.726;5.154;2023-02-18T15:14:02;9.52;;;5.53;;
67442;SDS011;54311;51.726;5.154;2023-02-18T15:16:33;14.10;;;4.93;;
67442;SDS011;54311;51.726;5.154;2023-02-18T15:19:04;11.32;;;5.40;;
67442;SDS011;54311;51.726;5.154;2023-02-18T15:21:31;14.38;;;5.18;;
67442;SDS011;54311;51.726;5.154;2023-02-18T15:24:07;12.45;;;4.63;;
67442;SDS011;54311;51.726;5.154;2023-02-18T15:26:36;18.90;;;5.32;;
67442;SDS011;54311;51.726;5.154;2023-02-18T15:29:11;12.35;;;5.30;;
67442;SDS011;54311;51.726;5.154;2023-02-18T15:31:39;19.38;;;5.40;;
67442;SDS011;54311;51.726;5.154;2023-02-18T15:36:58;14.15;;;5.45;;
67442;SDS011;54311;51.726;5.154;2023-02-18T15:39:24;13.07;;;5.68;;
67442;SDS011;54311;51.726;5.154;2023-02-18T15:41:53;20.55;;;6.38;;
67442;SDS011;54311;51.726;5.154;2023-02-18T15:44:24;12.23;;;4.70;;
67442;SDS011;54311;51.726;5.154;2023-02-18T15:46:52;16.25;;;5.15;;
67442;SDS011;54311;51.726;5.154;2023-02-18T15:49:18;13.43;;;5.00;;
67442;SDS011;54311;51.726;5.154;2023-02-18T15:51:45;15.50;;;5.63;;
67442;SDS011;54311;51.726;5.154;2023-02-18T15:54:18;13.10;;;5.72;;
67442;SDS011;54311;51.726;5.154;2023-02-18T15:56:45;14.70;;;5.65;;
67442;SDS011;54311;51.726;5.154;2023-02-18T15:59:19;16.83;;;5.22;;
67442;SDS011;54311;51.726;5.154;2023-02-18T16:01:51;17.08;;;5.90;;
67442;SDS011;54311;51.726;5.154;2023-02-18T16:04:38;11.38;;;5.53;;
67442;SDS011;54311;51.726;5.154;2023-02-18T16:09:47;17.40;;;5.63;;
67442;SDS011;54311;51.726;5.154;2023-02-18T16:12:19;13.45;;;5.22;;
67442;SDS011;54311;51.726;5.154;2023-02-18T16:14:55;10.07;;;5.30;;
67442;SDS011;54311;51.726;5.154;2023-02-18T16:17:25;16.48;;;5.63;;
67442;SDS011;54311;51.726;5.154;2023-02-18T16:22:43;14.43;;;5.80;;
67442;SDS011;54311;51.726;5.154;2023-02-18T16:25:17;18.00;;;6.20;;
67442;SDS011;54311;51.726;5.154;2023-02-18T16:30:18;14.30;;;5.50;;
67442;SDS011;54311;51.726;5.154;2023-02-18T16:32:44;11.30;;;5.43;;
67442;SDS011;54311;51.726;5.154;2023-02-18T16:35:11;16.27;;;6.10;;
67442;SDS011;54311;51.726;5.154;2023-02-18T16:37:36;16.77;;;5.57;;
67442;SDS011;54311;51.726;5.154;2023-02-18T16:42:51;17.38;;;6.20;;
67442;SDS011;54311;51.726;5.154;2023-02-18T16:45:17;15.38;;;6.15;;
67442;SDS011;54311;51.726;5.154;2023-02-18T16:47:43;13.57;;;6.35;;
67442;SDS011;54311;51.726;5.154;2023-02-18T16:50:17;15.65;;;5.78;;
67442;SDS011;54311;51.726;5.154;2023-02-18T16:52:44;16.42;;;6.30;;
67442;SDS011;54311;51.726;5.154;2023-02-18T16:55:19;16.23;;;5.70;;
67442;SDS011;54311;51.726;5.154;2023-02-18T16:57:49;16.88;;;6.57;;
67442;SDS011;54311;51.726;5.154;2023-02-18T17:00:15;13.82;;;5.68;;
67442;SDS011;54311;51.726;5.154;2023-02-18T17:02:45;14.38;;;6.70;;
67442;SDS011;54311;51.726;5.154;2023-02-18T17:05:19;19.58;;;6.82;;
67442;SDS011;54311;51.726;5.154;2023-02-18T17:08:15;17.98;;;6.43;;
67442;SDS011;54311;51.726;5.154;2023-02-18T17:10:51;21.37;;;6.53;;
67442;SDS011;54311;51.726;5.154;2023-02-18T17:13:19;12.65;;;5.53;;
67442;SDS011;54311;51.726;5.154;2023-02-18T17:15:47;18.48;;;6.30;;
67442;SDS011;54311;51.726;5.154;2023-02-18T17:18:15;22.45;;;6.65;;
67442;SDS011;54311;51.726;5.154;2023-02-18T17:20:40;17.80;;;7.53;;
67442;SDS011;54311;51.726;5.154;2023-02-18T17:23:06;20.67;;;6.88;;
67442;SDS011;54311;51.726;5.154;2023-02-18T17:25:35;20.60;;;7.10;;